Thursday, October 30, 2014
16:48 UTC
  |  Log In   |  Register Free
Airport Search:

Tucson International Airport
(KTUS)

FAA data valid effective September 18, 2014 - November 13, 2014 (unless otherwise noted).

 
 
 
 
 
 
 
 
 
 
 
 
 
 

Current Aviation Weather for Tucson International Airport (KTUS)

The most recent METAR observation for KTUS was updated at: 1623
METAR Summary (Translated METAR)
KTUS
301553Z 15006KT 10SM CLR 21/05 A3012 RMK AO2 SLP166 T02060050
KDMA
301558Z AUTO 14011KT 10SM CLR 23/05 A3010 RMK AO2 SLP158 T02260049 $
(4.2 nm NE from KTUS)
KRYN
301545Z 09006KT 10SM CLR 19/07 A3011
(12 nm NW from KTUS)
TAF Summary (Translated TAF)
KTUS
301127Z 3012/3112 14008KT P6SM SKC FM301700 13005KT P6SM SCT250 FM302100 33005KT P6SM BKN250 FM310400 14006KT P6SM FEW150 BKN250
KDMA
(4.2 nm NE from KTUS)
3013/3119 12009KT 9999 SKC QNH3001INS BECMG 3111/3112 13012KT 9999 BKN200 QNH3002INS BECMG 3115/3116 11012G20KT 9999 BKN200 QNH3004INS TX31/3021Z TN12/3013Z
  Airport Weather Conditions for KTUS

 Current Weather at TUS
69° F
Fair
Southeast winds at 6.9 mph
TUS NOAA Radar

Pressure: 30.12 in
Humidity: 36%
Wind: Southeast at 6.9 MPH (6 KT)
Dew Point: 41.0°F
Visibility: 10.00 mi


Airport Weather Forecast for KTUS

Translated METAR and TAF for KTUS
Translated METAR for KTUS (1643 UTC 30 October 2014)
found at http://aviationweather.gov/adds/metars/
 
METAR text: KTUS 301553Z 15006KT 10SM CLR 21/05 A3012 RMK AO2 SLP166 T02060050
Conditions at: KTUS (TUCSON , AZ, US) observed 1553 UTC 30 October 2014
Temperature: 20.6°C (69°F)
Dewpoint: 5.0°C (41°F) [RH = 36%]
Pressure (altimeter): 30.12 inches Hg (1020.1 mb)
[Sea-level pressure: 1016.6 mb]
Winds: from the SSE (150 degrees) at 7 MPH (6 knots; 3.1 m/s)
Visibility: 10 or more miles (16+ km)
Ceiling: at least 12,000 feet AGL
Clouds: sky clear below 12,000 feet AGL
Weather: no significant weather observed at this time
Translated TAF for KTUS
Forecast for: KTUS (TUCSON , AZ, US)
TAF Text: KTUS 301127Z 3012/3112 14008KT P6SM SKC
Forecast period: 1200 to 1700 UTC 30 October 2014
Forecast type: FROM: standard forecast or significant change
Winds: from the SE (140 degrees) at 9 MPH (8 knots; 4.2 m/s)
Visibility: 6 or more miles (10+ km)
Clouds: clear skies
Weather: no significant weather forecast for this period
TAF Text: FM301700 13005KT P6SM SCT250
Forecast period: 1700 to 2100 UTC 30 October 2014
Forecast type: FROM: standard forecast or significant change
Winds: from the SE (130 degrees) at 6 MPH (5 knots; 2.6 m/s)
Visibility: 6 or more miles (10+ km)
Clouds: scattered clouds at 25000 feet AGL
Weather: no significant weather forecast for this period
TAF Text: FM302100 33005KT P6SM BKN250
Forecast period: 2100 UTC 30 October 2014 to 0400 UTC 31 October 2014
Forecast type: FROM: standard forecast or significant change
Winds: from the NNW (330 degrees) at 6 MPH (5 knots; 2.6 m/s)
Visibility: 6 or more miles (10+ km)
Ceiling: 25000 feet AGL
Clouds: broken clouds at 25000 feet AGL
Weather: no significant weather forecast for this period
TAF Text: FM310400 14006KT P6SM FEW150 BKN250
Forecast period: 0400 to 1200 UTC 31 October 2014
Forecast type: FROM: standard forecast or significant change
Winds: from the SE (140 degrees) at 7 MPH (6 knots; 3.1 m/s)
Visibility: 6 or more miles (10+ km)
Ceiling: 25000 feet AGL
Clouds: few clouds at 15000 feet AGL
broken clouds at 25000 feet AGL
Weather: no significant weather forecast for this period

Find All Airport Services Find A Hotel Find A Rental Car Find A Golf Course Find A Restaurant $100 Hamburger



FBO's on the Field
FBO Company Facility Photos Services Transportation Aviation Fuel Prices: Prices include tax
Catering Weather Repair Courtesy Rental Type 100LL JetA JetA+ MOGAS 8087
 
Bombardier Aerospace

Bombardier Aerospace logo
This FBO has not yet been rated
FS:
Last Updated: Oct-16
Login to update fuel prices
SS:
Contact Bombardier AerospaceMore FBO Information
 
Atlantic Aviation - TUS

Currently rated 4.6 by 2 people
FS:Texaco
Last Updated: Oct-29
Login to update fuel prices
SS:
Contact Atlantic Aviation - TUSMore FBO Information
 
Million Air

This FBO has not yet been rated
FS:Independent
Last Updated: Oct-07
Login to update fuel prices
SS:
Contact Million AirMore FBO Information
 
Million Air Tucson

Currently rated 2.2 by 3 people
FS:Independent
Last Updated: Sep-25
Login to update fuel prices
SS:
Contact Million Air TucsonMore FBO Information
 
Tucson Jet Center

Currently rated 4.4 by 3 people
FS:Independent
Last Updated: Oct-28
Login to update fuel prices
SS:
Contact Tucson Jet CenterMore FBO Information
 
Velocity Air Inc.

This FBO has not yet been rated
FS:Ascent
Last Updated: Oct-20
Login to update fuel prices
SS:
Contact Velocity Air Inc.More FBO Information
 
Add another FBO Facility Photos Catering Weather Repair Courtesy Rental Type 100LL JetA JetA+ MOGAS 8087
Services Transportation Aviation Fuel Prices: Prices include tax


model-print
model-print
model-print
model-print